createdAt,value
2019-03-12T00:03:17.949Z,4.10
2019-03-12T00:09:22.199Z,4.10
2019-03-12T00:15:24.329Z,4.20
2019-03-12T00:21:26.448Z,4.20
2019-03-12T00:27:28.559Z,4.10
2019-03-12T00:33:30.795Z,4.00
2019-03-12T00:39:32.985Z,3.80
2019-03-12T00:45:35.403Z,3.80
2019-03-12T00:51:37.604Z,3.80
2019-03-12T00:57:39.788Z,3.80
2019-03-12T01:03:41.979Z,3.90
2019-03-12T01:09:44.221Z,3.80
2019-03-12T01:15:46.422Z,3.80
2019-03-12T01:21:48.690Z,3.70
2019-03-12T01:27:50.834Z,3.60
2019-03-12T01:33:53.083Z,3.60
2019-03-12T01:39:55.351Z,3.50
2019-03-12T01:45:57.648Z,3.60
2019-03-12T01:51:59.892Z,3.50
2019-03-12T01:58:02.172Z,3.50
2019-03-12T02:04:04.320Z,3.50
2019-03-12T02:10:07.231Z,3.50
2019-03-12T02:16:09.480Z,3.50
2019-03-12T02:22:11.668Z,3.60
2019-03-12T02:28:13.770Z,3.60
2019-03-12T02:34:15.944Z,3.60
2019-03-12T02:40:18.230Z,3.60
2019-03-12T02:46:20.363Z,3.60
2019-03-12T02:52:22.628Z,3.70
2019-03-12T02:58:24.787Z,3.70
2019-03-12T03:04:27.038Z,3.70
2019-03-12T03:10:29.334Z,3.70
2019-03-12T03:16:31.703Z,3.70
2019-03-12T03:22:33.827Z,3.80
2019-03-12T03:28:35.962Z,3.80
2019-03-12T03:34:38.110Z,3.80
2019-03-12T03:40:40.457Z,3.70
2019-03-12T03:46:42.573Z,3.80
2019-03-12T03:52:44.734Z,3.80
2019-03-12T03:58:46.888Z,3.80
2019-03-12T04:04:49.184Z,3.80
2019-03-12T04:10:51.384Z,3.80
2019-03-12T04:16:53.575Z,3.80
2019-03-12T04:22:55.785Z,3.70
2019-03-12T04:28:57.926Z,3.80
2019-03-12T04:35:00.056Z,3.90
2019-03-12T04:41:02.279Z,3.90
2019-03-12T04:47:04.655Z,3.90
2019-03-12T04:53:06.791Z,3.90
2019-03-12T04:59:08.958Z,3.90
2019-03-12T05:05:11.125Z,4.00
2019-03-12T05:11:13.406Z,4.00
2019-03-12T05:17:36.483Z,4.10
2019-03-12T05:23:38.719Z,4.10
2019-03-12T05:29:40.836Z,4.10
2019-03-12T05:35:42.969Z,4.00
2019-03-12T05:41:46.362Z,4.10
2019-03-12T05:47:48.754Z,4.10
2019-03-12T05:53:51.148Z,4.10
2019-03-12T05:59:53.383Z,4.10
2019-03-12T06:05:57.809Z,4.20
2019-03-12T06:12:00.071Z,4.20
2019-03-12T06:18:02.300Z,4.20
2019-03-12T06:24:04.555Z,4.30
2019-03-12T06:30:07.955Z,4.30
2019-03-12T06:36:14.962Z,4.40
2019-03-12T06:42:28.332Z,4.40
2019-03-12T06:57:11.812Z,4.60
2019-03-12T07:11:27.118Z,4.60
2019-03-12T09:05:26.216Z,5.40
2019-03-12T09:11:36.220Z,5.70
2019-03-12T09:17:42.415Z,6.00
2019-03-12T09:23:46.535Z,6.30
2019-03-12T09:30:05.641Z,6.70
2019-03-12T09:36:09.884Z,7.00
2019-03-12T09:42:30.363Z,7.00
2019-03-12T09:48:40.458Z,6.60
2019-03-12T09:54:47.722Z,6.30
2019-03-12T10:01:08.617Z,6.10
2019-03-12T10:07:12.924Z,6.00
2019-03-12T10:13:23.747Z,6.00
2019-03-12T10:19:37.221Z,6.20
2019-03-12T10:25:50.476Z,6.20
2019-03-12T10:32:12.988Z,6.60
2019-03-12T10:38:53.688Z,6.80
2019-03-12T10:44:57.770Z,7.40
2019-03-12T10:51:00.172Z,7.70
2019-03-12T10:57:02.363Z,8.10
2019-03-12T11:03:04.641Z,8.40
2019-03-12T11:09:06.986Z,8.20
2019-03-12T11:15:09.886Z,8.10
2019-03-12T11:21:14.771Z,8.00
2019-03-12T11:27:17.171Z,8.20
2019-03-12T11:33:19.370Z,8.10
2019-03-12T11:39:21.672Z,7.80
2019-03-12T11:45:35.795Z,7.50
2019-03-12T11:51:28.925Z,7.20
2019-03-12T11:57:31.451Z,7.00
2019-03-12T12:03:33.951Z,6.90
2019-03-12T12:09:36.385Z,7.00
2019-03-12T12:15:38.878Z,7.50
2019-03-12T12:21:45.956Z,8.10
2019-03-12T12:27:48.480Z,8.70
2019-03-12T12:33:51.177Z,8.80
2019-03-12T12:39:53.365Z,8.60
2019-03-12T12:45:55.771Z,8.80
2019-03-12T12:51:58.187Z,9.00
2019-03-12T12:58:00.617Z,9.60
2019-03-12T13:04:04.026Z,9.80
2019-03-12T13:10:10.782Z,10.30
2019-03-12T13:16:24.362Z,10.80
2019-03-12T13:22:21.732Z,10.80
2019-03-12T13:28:25.156Z,10.80
2019-03-12T13:34:27.767Z,10.20
2019-03-12T13:40:30.053Z,10.20
2019-03-12T13:46:32.537Z,10.30
2019-03-12T13:52:35.096Z,10.30
2019-03-12T13:58:37.589Z,10.30
2019-03-12T14:04:40.019Z,10.30
2019-03-12T14:10:43.409Z,10.00
2019-03-12T14:16:45.717Z,9.90
2019-03-12T14:22:50.027Z,10.00
2019-03-12T14:28:52.853Z,9.40
2019-03-12T14:34:55.071Z,9.60
2019-03-12T14:40:57.423Z,9.70
2019-03-12T14:46:59.721Z,10.10
2019-03-12T14:53:07.547Z,10.30
2019-03-12T14:59:10.468Z,10.00
2019-03-12T15:05:13.271Z,9.60
2019-03-12T15:11:15.806Z,9.40
2019-03-12T15:17:18.185Z,9.60
2019-03-12T15:23:20.655Z,9.60
2019-03-12T15:29:23.589Z,9.60
2019-03-12T15:35:26.903Z,9.70
2019-03-12T15:41:29.198Z,9.30
2019-03-12T15:47:33.889Z,9.10
2019-03-12T15:53:36.255Z,8.90
2019-03-12T15:59:38.423Z,8.60
2019-03-12T16:05:40.787Z,8.50
2019-03-12T16:11:42.980Z,8.40
2019-03-12T16:17:45.291Z,8.30
2019-03-12T16:23:47.964Z,8.10
2019-03-12T16:29:50.170Z,7.90
2019-03-12T16:35:52.756Z,7.80
2019-03-12T16:42:04.216Z,7.50
2019-03-12T16:48:06.631Z,7.40
2019-03-12T16:54:09.904Z,7.20
2019-03-12T17:00:12.257Z,6.90
2019-03-12T17:06:15.552Z,6.60
2019-03-12T17:12:18.043Z,6.30
2019-03-12T17:18:20.333Z,6.00
2019-03-12T17:24:22.699Z,5.60
2019-03-12T17:30:27.573Z,5.20
2019-03-12T17:36:29.932Z,4.90
2019-03-12T17:42:32.276Z,4.60
2019-03-12T17:48:36.784Z,4.30
2019-03-12T17:54:39.016Z,4.00
2019-03-12T18:00:43.117Z,3.70
2019-03-12T18:06:45.378Z,3.50
2019-03-12T18:12:47.726Z,3.30
2019-03-12T18:18:49.955Z,3.20
2019-03-12T18:24:54.074Z,3.00
2019-03-12T18:30:57.301Z,2.80
2019-03-12T18:37:00.652Z,2.60
2019-03-12T18:43:03.035Z,2.50
2019-03-12T18:49:05.404Z,2.30
2019-03-12T18:55:12.510Z,2.20
2019-03-12T19:01:15.418Z,2.10
2019-03-12T19:07:18.296Z,1.90
2019-03-12T19:13:20.930Z,1.80
2019-03-12T19:19:23.518Z,1.70
2019-03-12T19:25:26.586Z,1.70
2019-03-12T19:31:31.110Z,1.60
2019-03-12T19:37:33.304Z,1.60
2019-03-12T19:43:35.725Z,1.60
2019-03-12T19:49:38.115Z,1.60
2019-03-12T19:55:41.755Z,1.60
2019-03-12T20:01:44.771Z,1.50
2019-03-12T20:07:47.016Z,1.50
2019-03-12T20:14:31.053Z,1.50
2019-03-12T20:21:10.267Z,1.50
2019-03-12T20:27:55.400Z,1.60
2019-03-12T20:34:42.331Z,1.60
2019-03-12T20:41:21.052Z,1.60
2019-03-12T20:47:51.200Z,1.60
2019-03-12T20:54:26.917Z,1.60
2019-03-12T21:01:17.391Z,1.60
2019-03-12T21:08:09.303Z,1.80
2019-03-12T21:15:08.350Z,2.00
2019-03-12T21:22:03.694Z,2.20
2019-03-12T21:28:33.721Z,2.30
2019-03-12T21:34:35.850Z,2.40
2019-03-12T21:40:38.211Z,2.40
2019-03-12T21:46:40.463Z,2.40
2019-03-12T21:52:42.675Z,2.50
2019-03-12T21:58:44.925Z,2.60
2019-03-12T22:04:47.136Z,2.60
2019-03-12T22:10:49.329Z,2.60
2019-03-12T22:16:53.152Z,2.70
2019-03-12T22:23:00.280Z,2.70
2019-03-12T22:29:02.875Z,2.60
2019-03-12T22:35:05.239Z,2.50
2019-03-12T22:41:07.504Z,2.40
2019-03-12T22:47:09.715Z,2.40
2019-03-12T22:53:11.914Z,2.50
2019-03-12T22:59:15.149Z,2.50
2019-03-12T23:05:17.435Z,2.60
2019-03-12T23:11:19.687Z,2.60
2019-03-12T23:17:21.995Z,2.70
2019-03-12T23:23:24.199Z,2.70
2019-03-12T23:29:26.379Z,2.70
2019-03-12T23:35:28.730Z,2.60
2019-03-12T23:41:30.963Z,2.50
2019-03-12T23:47:33.482Z,2.30
2019-03-12T23:53:36.145Z,2.20
2019-03-12T23:59:38.467Z,2.10
